sensor_id;sensor_type;location;lat;lon;timestamp;P1;durP1;ratioP1;P2;durP2;ratioP2
50569;SDS011;36525;49.398;7.614;2022-12-26T00:01:18;7.97;;;3.60;;
50569;SDS011;36525;49.398;7.614;2022-12-26T00:03:48;8.00;;;3.75;;
50569;SDS011;36525;49.398;7.614;2022-12-26T00:06:16;6.55;;;3.60;;
50569;SDS011;36525;49.398;7.614;2022-12-26T00:08:49;6.63;;;3.88;;
50569;SDS011;36525;49.398;7.614;2022-12-26T00:11:16;10.13;;;3.60;;
50569;SDS011;36525;49.398;7.614;2022-12-26T00:13:44;6.82;;;3.60;;
50569;SDS011;36525;49.398;7.614;2022-12-26T00:16:12;8.00;;;3.30;;
50569;SDS011;36525;49.398;7.614;2022-12-26T00:18:44;6.25;;;3.67;;
50569;SDS011;36525;49.398;7.614;2022-12-26T00:21:13;7.55;;;4.03;;
50569;SDS011;36525;49.398;7.614;2022-12-26T00:23:42;7.00;;;3.90;;
50569;SDS011;36525;49.398;7.614;2022-12-26T00:26:13;8.40;;;3.75;;
50569;SDS011;36525;49.398;7.614;2022-12-26T00:28:43;7.63;;;3.70;;
50569;SDS011;36525;49.398;7.614;2022-12-26T00:31:17;5.57;;;3.45;;
50569;SDS011;36525;49.398;7.614;2022-12-26T00:33:48;5.43;;;3.47;;
50569;SDS011;36525;49.398;7.614;2022-12-26T00:36:19;6.30;;;3.42;;
50569;SDS011;36525;49.398;7.614;2022-12-26T00:38:49;7.47;;;3.28;;
50569;SDS011;36525;49.398;7.614;2022-12-26T00:41:17;6.50;;;3.45;;
50569;SDS011;36525;49.398;7.614;2022-12-26T00:43:46;5.35;;;2.83;;
50569;SDS011;36525;49.398;7.614;2022-12-26T00:46:13;4.68;;;3.00;;
50569;SDS011;36525;49.398;7.614;2022-12-26T00:48:41;7.20;;;3.05;;
50569;SDS011;36525;49.398;7.614;2022-12-26T00:51:09;8.57;;;3.83;;
50569;SDS011;36525;49.398;7.614;2022-12-26T00:53:36;7.45;;;3.20;;
50569;SDS011;36525;49.398;7.614;2022-12-26T00:56:03;6.30;;;3.10;;
50569;SDS011;36525;49.398;7.614;2022-12-26T00:58:30;7.63;;;3.17;;
50569;SDS011;36525;49.398;7.614;2022-12-26T01:01:08;5.13;;;3.15;;
50569;SDS011;36525;49.398;7.614;2022-12-26T01:03:42;5.00;;;3.00;;
50569;SDS011;36525;49.398;7.614;2022-12-26T01:06:11;6.25;;;3.20;;
50569;SDS011;36525;49.398;7.614;2022-12-26T01:08:39;11.68;;;3.28;;
50569;SDS011;36525;49.398;7.614;2022-12-26T01:11:07;6.15;;;3.00;;
50569;SDS011;36525;49.398;7.614;2022-12-26T01:13:37;9.15;;;3.58;;
50569;SDS011;36525;49.398;7.614;2022-12-26T01:16:05;6.70;;;2.90;;
50569;SDS011;36525;49.398;7.614;2022-12-26T01:18:33;5.22;;;2.65;;
50569;SDS011;36525;49.398;7.614;2022-12-26T01:21:02;6.93;;;3.03;;
50569;SDS011;36525;49.398;7.614;2022-12-26T01:23:32;5.85;;;2.78;;
50569;SDS011;36525;49.398;7.614;2022-12-26T01:25:59;8.98;;;3.15;;
50569;SDS011;36525;49.398;7.614;2022-12-26T01:28:44;4.75;;;2.35;;
50569;SDS011;36525;49.398;7.614;2022-12-26T01:31:12;6.95;;;2.60;;
50569;SDS011;36525;49.398;7.614;2022-12-26T01:33:39;4.60;;;2.13;;
50569;SDS011;36525;49.398;7.614;2022-12-26T01:36:06;5.22;;;2.58;;
50569;SDS011;36525;49.398;7.614;2022-12-26T01:38:33;7.65;;;2.63;;
50569;SDS011;36525;49.398;7.614;2022-12-26T01:41:00;4.93;;;2.60;;
50569;SDS011;36525;49.398;7.614;2022-12-26T01:43:49;6.90;;;2.38;;
50569;SDS011;36525;49.398;7.614;2022-12-26T01:46:28;4.70;;;1.90;;
50569;SDS011;36525;49.398;7.614;2022-12-26T01:49:07;5.93;;;2.75;;
50569;SDS011;36525;49.398;7.614;2022-12-26T01:51:58;6.72;;;2.92;;
50569;SDS011;36525;49.398;7.614;2022-12-26T01:54:31;6.00;;;2.33;;
50569;SDS011;36525;49.398;7.614;2022-12-26T01:57:08;5.38;;;2.10;;
50569;SDS011;36525;49.398;7.614;2022-12-26T01:59:42;5.75;;;1.80;;
50569;SDS011;36525;49.398;7.614;2022-12-26T02:02:11;5.03;;;2.17;;
50569;SDS011;36525;49.398;7.614;2022-12-26T02:04:40;6.32;;;2.30;;
50569;SDS011;36525;49.398;7.614;2022-12-26T02:07:32;4.10;;;1.98;;
50569;SDS011;36525;49.398;7.614;2022-12-26T02:10:01;5.25;;;1.92;;
50569;SDS011;36525;49.398;7.614;2022-12-26T02:12:32;5.63;;;2.60;;
50569;SDS011;36525;49.398;7.614;2022-12-26T02:15:09;4.45;;;2.53;;
50569;SDS011;36525;49.398;7.614;2022-12-26T02:17:39;7.00;;;2.42;;
50569;SDS011;36525;49.398;7.614;2022-12-26T02:20:26;8.07;;;2.40;;
50569;SDS011;36525;49.398;7.614;2022-12-26T02:28:48;5.95;;;2.10;;
50569;SDS011;36525;49.398;7.614;2022-12-26T02:31:31;8.25;;;2.50;;
50569;SDS011;36525;49.398;7.614;2022-12-26T02:37:33;4.65;;;2.33;;
50569;SDS011;36525;49.398;7.614;2022-12-26T02:46:55;5.65;;;2.20;;
50569;SDS011;36525;49.398;7.614;2022-12-26T02:49:57;6.93;;;2.25;;
50569;SDS011;36525;49.398;7.614;2022-12-26T02:56:35;9.13;;;2.92;;
50569;SDS011;36525;49.398;7.614;2022-12-26T03:02:46;4.70;;;2.35;;
50569;SDS011;36525;49.398;7.614;2022-12-26T03:05:47;5.32;;;1.90;;
50569;SDS011;36525;49.398;7.614;2022-12-26T03:08:40;6.65;;;2.53;;
50569;SDS011;36525;49.398;7.614;2022-12-26T03:11:32;4.32;;;2.50;;
50569;SDS011;36525;49.398;7.614;2022-12-26T03:14:27;6.27;;;1.90;;
50569;SDS011;36525;49.398;7.614;2022-12-26T03:17:05;5.28;;;2.42;;
50569;SDS011;36525;49.398;7.614;2022-12-26T03:19:55;9.80;;;2.40;;
50569;SDS011;36525;49.398;7.614;2022-12-26T03:22:33;8.80;;;2.58;;
50569;SDS011;36525;49.398;7.614;2022-12-26T03:25:09;6.03;;;2.30;;
50569;SDS011;36525;49.398;7.614;2022-12-26T03:28:03;9.57;;;2.33;;
50569;SDS011;36525;49.398;7.614;2022-12-26T03:30:30;6.10;;;2.22;;
50569;SDS011;36525;49.398;7.614;2022-12-26T03:36:10;5.22;;;2.38;;
50569;SDS011;36525;49.398;7.614;2022-12-26T03:38:47;5.35;;;1.92;;
50569;SDS011;36525;49.398;7.614;2022-12-26T03:41:35;7.75;;;2.60;;
50569;SDS011;36525;49.398;7.614;2022-12-26T03:44:47;6.18;;;2.70;;
50569;SDS011;36525;49.398;7.614;2022-12-26T03:50:46;7.63;;;2.50;;
50569;SDS011;36525;49.398;7.614;2022-12-26T03:56:32;5.03;;;2.38;;
50569;SDS011;36525;49.398;7.614;2022-12-26T03:59:35;8.10;;;1.95;;
50569;SDS011;36525;49.398;7.614;2022-12-26T04:02:32;5.28;;;2.28;;
50569;SDS011;36525;49.398;7.614;2022-12-26T04:05:19;6.57;;;2.58;;
50569;SDS011;36525;49.398;7.614;2022-12-26T04:08:09;5.38;;;2.13;;
50569;SDS011;36525;49.398;7.614;2022-12-26T04:11:02;5.18;;;2.33;;
50569;SDS011;36525;49.398;7.614;2022-12-26T04:14:11;7.82;;;2.40;;
50569;SDS011;36525;49.398;7.614;2022-12-26T04:23:12;4.93;;;2.17;;
50569;SDS011;36525;49.398;7.614;2022-12-26T04:26:08;8.05;;;2.65;;
50569;SDS011;36525;49.398;7.614;2022-12-26T04:29:11;6.25;;;2.22;;
50569;SDS011;36525;49.398;7.614;2022-12-26T04:32:04;5.57;;;2.35;;
50569;SDS011;36525;49.398;7.614;2022-12-26T04:35:25;5.93;;;1.92;;
50569;SDS011;36525;49.398;7.614;2022-12-26T04:38:18;6.20;;;2.45;;
50569;SDS011;36525;49.398;7.614;2022-12-26T04:41:08;5.88;;;2.75;;
50569;SDS011;36525;49.398;7.614;2022-12-26T04:43:56;10.43;;;2.25;;
50569;SDS011;36525;49.398;7.614;2022-12-26T04:46:40;5.55;;;2.78;;
50569;SDS011;36525;49.398;7.614;2022-12-26T04:49:12;6.07;;;2.60;;
50569;SDS011;36525;49.398;7.614;2022-12-26T04:52:02;7.65;;;3.20;;
50569;SDS011;36525;49.398;7.614;2022-12-26T04:54:32;4.70;;;2.03;;
50569;SDS011;36525;49.398;7.614;2022-12-26T04:56:59;9.55;;;3.03;;
50569;SDS011;36525;49.398;7.614;2022-12-26T04:59:26;7.10;;;2.70;;
50569;SDS011;36525;49.398;7.614;2022-12-26T05:01:53;6.53;;;2.63;;
50569;SDS011;36525;49.398;7.614;2022-12-26T05:04:39;5.97;;;2.65;;
50569;SDS011;36525;49.398;7.614;2022-12-26T05:07:28;8.90;;;3.13;;
50569;SDS011;36525;49.398;7.614;2022-12-26T05:10:18;4.38;;;2.50;;
50569;SDS011;36525;49.398;7.614;2022-12-26T05:12:51;3.85;;;1.95;;
50569;SDS011;36525;49.398;7.614;2022-12-26T05:15:19;6.63;;;2.42;;
50569;SDS011;36525;49.398;7.614;2022-12-26T05:17:46;5.15;;;2.60;;
50569;SDS011;36525;49.398;7.614;2022-12-26T05:20:32;6.43;;;2.53;;
50569;SDS011;36525;49.398;7.614;2022-12-26T05:23:15;5.75;;;2.30;;
50569;SDS011;36525;49.398;7.614;2022-12-26T05:26:10;7.05;;;2.72;;
50569;SDS011;36525;49.398;7.614;2022-12-26T05:29:01;4.85;;;2.97;;
50569;SDS011;36525;49.398;7.614;2022-12-26T05:31:29;6.55;;;2.60;;
50569;SDS011;36525;49.398;7.614;2022-12-26T05:34:01;5.88;;;2.70;;
50569;SDS011;36525;49.398;7.614;2022-12-26T05:36:34;6.40;;;2.90;;
50569;SDS011;36525;49.398;7.614;2022-12-26T05:39:05;5.80;;;2.72;;
50569;SDS011;36525;49.398;7.614;2022-12-26T05:41:34;7.13;;;2.58;;
50569;SDS011;36525;49.398;7.614;2022-12-26T05:44:03;6.43;;;3.13;;
50569;SDS011;36525;49.398;7.614;2022-12-26T05:46:30;5.40;;;3.15;;
50569;SDS011;36525;49.398;7.614;2022-12-26T05:48:57;6.57;;;3.05;;
50569;SDS011;36525;49.398;7.614;2022-12-26T05:51:24;6.72;;;3.17;;
50569;SDS011;36525;49.398;7.614;2022-12-26T05:53:51;6.95;;;3.22;;
50569;SDS011;36525;49.398;7.614;2022-12-26T05:56:18;9.88;;;3.30;;
50569;SDS011;36525;49.398;7.614;2022-12-26T05:58:46;6.03;;;3.33;;
50569;SDS011;36525;49.398;7.614;2022-12-26T06:01:18;7.40;;;3.35;;
50569;SDS011;36525;49.398;7.614;2022-12-26T06:03:47;6.47;;;3.67;;
50569;SDS011;36525;49.398;7.614;2022-12-26T06:06:17;9.32;;;4.18;;
50569;SDS011;36525;49.398;7.614;2022-12-26T06:08:46;10.30;;;3.58;;
50569;SDS011;36525;49.398;7.614;2022-12-26T06:11:15;7.63;;;4.00;;
50569;SDS011;36525;49.398;7.614;2022-12-26T06:13:43;9.15;;;4.05;;
50569;SDS011;36525;49.398;7.614;2022-12-26T06:16:12;9.32;;;4.60;;
50569;SDS011;36525;49.398;7.614;2022-12-26T06:18:41;9.88;;;3.20;;
50569;SDS011;36525;49.398;7.614;2022-12-26T06:21:10;8.57;;;3.70;;
50569;SDS011;36525;49.398;7.614;2022-12-26T06:23:41;8.07;;;3.85;;
50569;SDS011;36525;49.398;7.614;2022-12-26T06:26:08;8.57;;;3.85;;
50569;SDS011;36525;49.398;7.614;2022-12-26T06:28:38;9.43;;;4.15;;
50569;SDS011;36525;49.398;7.614;2022-12-26T06:31:07;6.88;;;4.57;;
50569;SDS011;36525;49.398;7.614;2022-12-26T06:33:39;9.85;;;4.90;;
50569;SDS011;36525;49.398;7.614;2022-12-26T06:36:08;9.25;;;5.18;;
50569;SDS011;36525;49.398;7.614;2022-12-26T06:38:40;8.63;;;4.45;;
50569;SDS011;36525;49.398;7.614;2022-12-26T06:41:09;10.38;;;4.88;;
50569;SDS011;36525;49.398;7.614;2022-12-26T06:43:39;10.07;;;4.65;;
50569;SDS011;36525;49.398;7.614;2022-12-26T06:46:07;7.82;;;4.50;;
50569;SDS011;36525;49.398;7.614;2022-12-26T06:48:38;13.65;;;4.90;;
50569;SDS011;36525;49.398;7.614;2022-12-26T06:51:07;8.65;;;4.85;;
50569;SDS011;36525;49.398;7.614;2022-12-26T06:53:37;8.23;;;4.65;;
50569;SDS011;36525;49.398;7.614;2022-12-26T06:58:38;6.63;;;4.28;;
50569;SDS011;36525;49.398;7.614;2022-12-26T07:01:16;8.40;;;3.95;;
50569;SDS011;36525;49.398;7.614;2022-12-26T07:03:44;7.80;;;4.45;;
50569;SDS011;36525;49.398;7.614;2022-12-26T07:08:49;7.72;;;4.00;;
50569;SDS011;36525;49.398;7.614;2022-12-26T07:11:20;8.13;;;4.40;;
50569;SDS011;36525;49.398;7.614;2022-12-26T07:13:49;8.93;;;4.53;;
50569;SDS011;36525;49.398;7.614;2022-12-26T07:16:18;9.15;;;4.55;;
50569;SDS011;36525;49.398;7.614;2022-12-26T07:18:46;6.97;;;4.47;;
50569;SDS011;36525;49.398;7.614;2022-12-26T07:21:13;10.77;;;4.30;;
50569;SDS011;36525;49.398;7.614;2022-12-26T07:23:41;7.60;;;4.03;;
50569;SDS011;36525;49.398;7.614;2022-12-26T07:26:08;9.65;;;4.47;;
50569;SDS011;36525;49.398;7.614;2022-12-26T07:28:36;8.13;;;3.80;;
50569;SDS011;36525;49.398;7.614;2022-12-26T07:31:03;5.93;;;3.30;;
50569;SDS011;36525;49.398;7.614;2022-12-26T07:33:31;7.78;;;3.35;;
50569;SDS011;36525;49.398;7.614;2022-12-26T07:36:03;7.18;;;2.90;;
50569;SDS011;36525;49.398;7.614;2022-12-26T07:38:31;8.30;;;4.13;;
50569;SDS011;36525;49.398;7.614;2022-12-26T07:40:59;10.30;;;4.20;;
50569;SDS011;36525;49.398;7.614;2022-12-26T07:43:46;7.93;;;3.63;;
50569;SDS011;36525;49.398;7.614;2022-12-26T07:46:13;7.85;;;4.82;;
50569;SDS011;36525;49.398;7.614;2022-12-26T07:48:40;8.38;;;3.58;;
50569;SDS011;36525;49.398;7.614;2022-12-26T07:51:07;9.18;;;4.07;;
50569;SDS011;36525;49.398;7.614;2022-12-26T07:53:34;7.93;;;3.40;;
50569;SDS011;36525;49.398;7.614;2022-12-26T07:56:01;8.85;;;4.22;;
50569;SDS011;36525;49.398;7.614;2022-12-26T07:58:28;6.10;;;3.08;;
50569;SDS011;36525;49.398;7.614;2022-12-26T08:00:55;6.80;;;2.83;;
50569;SDS011;36525;49.398;7.614;2022-12-26T08:03:29;5.07;;;2.38;;
50569;SDS011;36525;49.398;7.614;2022-12-26T08:05:56;6.38;;;2.95;;
50569;SDS011;36525;49.398;7.614;2022-12-26T08:08:23;5.90;;;2.38;;
50569;SDS011;36525;49.398;7.614;2022-12-26T08:11:00;5.68;;;2.75;;
50569;SDS011;36525;49.398;7.614;2022-12-26T08:13:29;6.22;;;2.90;;
50569;SDS011;36525;49.398;7.614;2022-12-26T08:15:57;4.65;;;2.55;;
50569;SDS011;36525;49.398;7.614;2022-12-26T08:18:25;7.65;;;2.90;;
50569;SDS011;36525;49.398;7.614;2022-12-26T08:20:52;5.50;;;2.13;;
50569;SDS011;36525;49.398;7.614;2022-12-26T08:23:19;5.50;;;2.30;;
50569;SDS011;36525;49.398;7.614;2022-12-26T08:25:46;6.05;;;2.47;;
50569;SDS011;36525;49.398;7.614;2022-12-26T08:28:13;4.57;;;2.47;;
50569;SDS011;36525;49.398;7.614;2022-12-26T08:30:40;7.65;;;3.22;;
50569;SDS011;36525;49.398;7.614;2022-12-26T08:33:08;7.80;;;2.75;;
50569;SDS011;36525;49.398;7.614;2022-12-26T08:35:36;6.22;;;2.83;;
50569;SDS011;36525;49.398;7.614;2022-12-26T08:38:04;8.70;;;3.65;;
50569;SDS011;36525;49.398;7.614;2022-12-26T08:40:32;6.22;;;3.00;;
50569;SDS011;36525;49.398;7.614;2022-12-26T08:43:10;6.70;;;3.08;;
50569;SDS011;36525;49.398;7.614;2022-12-26T08:46:05;9.18;;;3.85;;
50569;SDS011;36525;49.398;7.614;2022-12-26T08:48:36;5.32;;;3.38;;
50569;SDS011;36525;49.398;7.614;2022-12-26T08:51:07;8.27;;;3.55;;
50569;SDS011;36525;49.398;7.614;2022-12-26T08:53:46;6.57;;;4.15;;
50569;SDS011;36525;49.398;7.614;2022-12-26T08:56:18;7.82;;;4.18;;
50569;SDS011;36525;49.398;7.614;2022-12-26T08:58:49;5.78;;;3.13;;
50569;SDS011;36525;49.398;7.614;2022-12-26T09:01:25;6.30;;;2.95;;
50569;SDS011;36525;49.398;7.614;2022-12-26T09:03:56;5.28;;;2.92;;
50569;SDS011;36525;49.398;7.614;2022-12-26T09:06:27;7.18;;;3.55;;
50569;SDS011;36525;49.398;7.614;2022-12-26T09:08:57;5.47;;;2.90;;
50569;SDS011;36525;49.398;7.614;2022-12-26T09:11:26;6.22;;;3.33;;
50569;SDS011;36525;49.398;7.614;2022-12-26T09:13:54;8.55;;;2.35;;
50569;SDS011;36525;49.398;7.614;2022-12-26T09:16:25;4.03;;;2.83;;
50569;SDS011;36525;49.398;7.614;2022-12-26T09:19:03;7.90;;;2.63;;
50569;SDS011;36525;49.398;7.614;2022-12-26T09:21:31;7.55;;;2.70;;
50569;SDS011;36525;49.398;7.614;2022-12-26T09:23:59;5.30;;;2.80;;
50569;SDS011;36525;49.398;7.614;2022-12-26T09:26:29;5.40;;;2.35;;
50569;SDS011;36525;49.398;7.614;2022-12-26T09:28:57;6.50;;;2.67;;
50569;SDS011;36525;49.398;7.614;2022-12-26T09:31:25;5.82;;;2.17;;
50569;SDS011;36525;49.398;7.614;2022-12-26T09:34:01;6.82;;;2.22;;
50569;SDS011;36525;49.398;7.614;2022-12-26T09:36:31;4.82;;;2.13;;
50569;SDS011;36525;49.398;7.614;2022-12-26T09:39:03;4.30;;;2.17;;
50569;SDS011;36525;49.398;7.614;2022-12-26T09:41:46;5.45;;;1.95;;
50569;SDS011;36525;49.398;7.614;2022-12-26T09:44:44;4.05;;;1.85;;
50569;SDS011;36525;49.398;7.614;2022-12-26T09:47:32;4.45;;;2.47;;
50569;SDS011;36525;49.398;7.614;2022-12-26T09:50:23;3.20;;;1.98;;
50569;SDS011;36525;49.398;7.614;2022-12-26T09:58:32;6.05;;;2.20;;
50569;SDS011;36525;49.398;7.614;2022-12-26T10:01:07;4.68;;;1.38;;
50569;SDS011;36525;49.398;7.614;2022-12-26T10:03:42;3.90;;;2.17;;
50569;SDS011;36525;49.398;7.614;2022-12-26T10:06:23;4.60;;;1.92;;
50569;SDS011;36525;49.398;7.614;2022-12-26T10:20:00;5.65;;;1.70;;
50569;SDS011;36525;49.398;7.614;2022-12-26T10:23:12;4.35;;;2.08;;
50569;SDS011;36525;49.398;7.614;2022-12-26T10:25:57;5.07;;;2.08;;
50569;SDS011;36525;49.398;7.614;2022-12-26T10:28:34;7.65;;;2.00;;
50569;SDS011;36525;49.398;7.614;2022-12-26T10:31:11;5.90;;;1.73;;
50569;SDS011;36525;49.398;7.614;2022-12-26T10:33:48;7.90;;;2.63;;
50569;SDS011;36525;49.398;7.614;2022-12-26T10:36:41;8.30;;;2.35;;
50569;SDS011;36525;49.398;7.614;2022-12-26T10:42:41;5.28;;;1.77;;
50569;SDS011;36525;49.398;7.614;2022-12-26T10:45:13;4.00;;;1.80;;
50569;SDS011;36525;49.398;7.614;2022-12-26T10:47:44;4.57;;;2.45;;
50569;SDS011;36525;49.398;7.614;2022-12-26T10:50:18;5.40;;;2.20;;
50569;SDS011;36525;49.398;7.614;2022-12-26T10:52:53;4.65;;;2.03;;
50569;SDS011;36525;49.398;7.614;2022-12-26T10:55:26;5.47;;;2.03;;
50569;SDS011;36525;49.398;7.614;2022-12-26T10:58:13;6.63;;;2.22;;
50569;SDS011;36525;49.398;7.614;2022-12-26T11:00:48;3.85;;;1.92;;
50569;SDS011;36525;49.398;7.614;2022-12-26T11:03:16;5.57;;;1.77;;
50569;SDS011;36525;49.398;7.614;2022-12-26T11:05:46;4.55;;;1.65;;
50569;SDS011;36525;49.398;7.614;2022-12-26T11:08:38;5.55;;;1.63;;
50569;SDS011;36525;49.398;7.614;2022-12-26T11:13:59;6.30;;;1.92;;
50569;SDS011;36525;49.398;7.614;2022-12-26T11:16:37;4.25;;;1.45;;
50569;SDS011;36525;49.398;7.614;2022-12-26T11:19:05;5.03;;;1.63;;
50569;SDS011;36525;49.398;7.614;2022-12-26T11:22:14;8.27;;;1.70;;
50569;SDS011;36525;49.398;7.614;2022-12-26T11:27:35;7.47;;;1.90;;
50569;SDS011;36525;49.398;7.614;2022-12-26T11:35:21;4.53;;;1.52;;
50569;SDS011;36525;49.398;7.614;2022-12-26T11:37:52;4.43;;;1.65;;
50569;SDS011;36525;49.398;7.614;2022-12-26T11:40:23;2.85;;;1.38;;
50569;SDS011;36525;49.398;7.614;2022-12-26T11:42:56;7.22;;;2.00;;
50569;SDS011;36525;49.398;7.614;2022-12-26T11:45:26;3.00;;;1.60;;
50569;SDS011;36525;49.398;7.614;2022-12-26T11:48:06;5.78;;;2.20;;
50569;SDS011;36525;49.398;7.614;2022-12-26T11:50:47;5.65;;;2.00;;
50569;SDS011;36525;49.398;7.614;2022-12-26T11:53:15;3.60;;;1.45;;
50569;SDS011;36525;49.398;7.614;2022-12-26T11:55:56;5.03;;;2.00;;
50569;SDS011;36525;49.398;7.614;2022-12-26T11:58:29;4.78;;;1.50;;
50569;SDS011;36525;49.398;7.614;2022-12-26T12:03:35;3.30;;;1.08;;
50569;SDS011;36525;49.398;7.614;2022-12-26T12:09:49;3.60;;;1.45;;
50569;SDS011;36525;49.398;7.614;2022-12-26T12:15:35;4.13;;;1.55;;
50569;SDS011;36525;49.398;7.614;2022-12-26T12:21:16;2.97;;;1.10;;
50569;SDS011;36525;49.398;7.614;2022-12-26T12:23:49;4.20;;;1.05;;
50569;SDS011;36525;49.398;7.614;2022-12-26T12:32:26;3.38;;;1.50;;
50569;SDS011;36525;49.398;7.614;2022-12-26T12:35:12;3.20;;;0.93;;
50569;SDS011;36525;49.398;7.614;2022-12-26T12:40:57;6.47;;;1.20;;
50569;SDS011;36525;49.398;7.614;2022-12-26T13:00:48;3.70;;;1.33;;
50569;SDS011;36525;49.398;7.614;2022-12-26T13:09:14;4.65;;;1.17;;
50569;SDS011;36525;49.398;7.614;2022-12-26T13:12:06;4.28;;;1.23;;
50569;SDS011;36525;49.398;7.614;2022-12-26T13:14:46;2.58;;;1.00;;
50569;SDS011;36525;49.398;7.614;2022-12-26T13:17:26;4.65;;;1.05;;
50569;SDS011;36525;49.398;7.614;2022-12-26T13:22:37;3.25;;;0.95;;
50569;SDS011;36525;49.398;7.614;2022-12-26T13:25:30;3.58;;;0.77;;
50569;SDS011;36525;49.398;7.614;2022-12-26T13:28:20;4.85;;;1.10;;
50569;SDS011;36525;49.398;7.614;2022-12-26T13:30:53;3.33;;;0.80;;
50569;SDS011;36525;49.398;7.614;2022-12-26T13:33:21;5.45;;;1.17;;
50569;SDS011;36525;49.398;7.614;2022-12-26T13:41:26;4.35;;;0.70;;
50569;SDS011;36525;49.398;7.614;2022-12-26T14:00:00;3.65;;;0.95;;
50569;SDS011;36525;49.398;7.614;2022-12-26T14:18:17;5.50;;;0.90;;
50569;SDS011;36525;49.398;7.614;2022-12-26T14:41:21;2.50;;;0.70;;
50569;SDS011;36525;49.398;7.614;2022-12-26T14:44:08;4.38;;;0.80;;
50569;SDS011;36525;49.398;7.614;2022-12-26T14:54:50;4.30;;;1.27;;
50569;SDS011;36525;49.398;7.614;2022-12-26T15:02:51;3.90;;;1.15;;
50569;SDS011;36525;49.398;7.614;2022-12-26T15:23:38;4.70;;;0.80;;
50569;SDS011;36525;49.398;7.614;2022-12-26T15:32:38;5.32;;;0.90;;
50569;SDS011;36525;49.398;7.614;2022-12-26T15:35:35;3.22;;;0.68;;
50569;SDS011;36525;49.398;7.614;2022-12-26T15:44:01;2.38;;;0.80;;
50569;SDS011;36525;49.398;7.614;2022-12-26T15:47:15;3.08;;;0.60;;
50569;SDS011;36525;49.398;7.614;2022-12-26T15:58:47;5.70;;;1.45;;
50569;SDS011;36525;49.398;7.614;2022-12-26T16:09:49;2.58;;;0.95;;
50569;SDS011;36525;49.398;7.614;2022-12-26T16:17:35;2.97;;;0.90;;
50569;SDS011;36525;49.398;7.614;2022-12-26T16:23:11;2.03;;;0.55;;
50569;SDS011;36525;49.398;7.614;2022-12-26T16:25:46;2.10;;;0.88;;
50569;SDS011;36525;49.398;7.614;2022-12-26T16:28:15;0.93;;;0.38;;
50569;SDS011;36525;49.398;7.614;2022-12-26T16:30:48;1.75;;;0.60;;
50569;SDS011;36525;49.398;7.614;2022-12-26T16:33:16;3.00;;;0.68;;
50569;SDS011;36525;49.398;7.614;2022-12-26T16:35:43;2.88;;;0.70;;
50569;SDS011;36525;49.398;7.614;2022-12-26T16:38:21;2.00;;;0.60;;
50569;SDS011;36525;49.398;7.614;2022-12-26T16:40:53;4.13;;;0.77;;
50569;SDS011;36525;49.398;7.614;2022-12-26T16:45:55;5.60;;;1.65;;
50569;SDS011;36525;49.398;7.614;2022-12-26T16:48:28;2.15;;;0.60;;
50569;SDS011;36525;49.398;7.614;2022-12-26T16:51:02;1.20;;;0.50;;
50569;SDS011;36525;49.398;7.614;2022-12-26T17:01:08;4.32;;;0.90;;
50569;SDS011;36525;49.398;7.614;2022-12-26T17:04:14;3.13;;;1.15;;
50569;SDS011;36525;49.398;7.614;2022-12-26T17:06:48;3.40;;;0.50;;
50569;SDS011;36525;49.398;7.614;2022-12-26T17:09:28;7.00;;;2.33;;
50569;SDS011;36525;49.398;7.614;2022-12-26T17:11:59;3.10;;;0.90;;
50569;SDS011;36525;49.398;7.614;2022-12-26T17:14:40;2.50;;;0.70;;
50569;SDS011;36525;49.398;7.614;2022-12-26T17:19:48;1.88;;;0.70;;
50569;SDS011;36525;49.398;7.614;2022-12-26T17:22:22;1.43;;;0.43;;
50569;SDS011;36525;49.398;7.614;2022-12-26T17:27:42;0.85;;;0.50;;
50569;SDS011;36525;49.398;7.614;2022-12-26T17:30:23;0.40;;;0.20;;
50569;SDS011;36525;49.398;7.614;2022-12-26T17:33:04;1.58;;;0.30;;
50569;SDS011;36525;49.398;7.614;2022-12-26T17:35:37;1.45;;;0.30;;
50569;SDS011;36525;49.398;7.614;2022-12-26T17:38:26;0.70;;;0.30;;
50569;SDS011;36525;49.398;7.614;2022-12-26T17:40:55;0.43;;;0.30;;
50569;SDS011;36525;49.398;7.614;2022-12-26T17:43:28;1.13;;;0.40;;
50569;SDS011;36525;49.398;7.614;2022-12-26T17:46:04;1.58;;;0.45;;
50569;SDS011;36525;49.398;7.614;2022-12-26T17:48:33;0.82;;;0.40;;
50569;SDS011;36525;49.398;7.614;2022-12-26T17:51:03;1.00;;;0.50;;
50569;SDS011;36525;49.398;7.614;2022-12-26T17:56:13;3.72;;;0.77;;
50569;SDS011;36525;49.398;7.614;2022-12-26T17:58:45;2.22;;;0.60;;
50569;SDS011;36525;49.398;7.614;2022-12-26T18:01:14;2.65;;;0.70;;
50569;SDS011;36525;49.398;7.614;2022-12-26T18:03:47;2.33;;;0.60;;
50569;SDS011;36525;49.398;7.614;2022-12-26T18:06:14;2.97;;;0.70;;
50569;SDS011;36525;49.398;7.614;2022-12-26T18:08:43;1.77;;;0.60;;
50569;SDS011;36525;49.398;7.614;2022-12-26T18:11:11;1.85;;;0.70;;
50569;SDS011;36525;49.398;7.614;2022-12-26T18:13:39;4.00;;;1.27;;
50569;SDS011;36525;49.398;7.614;2022-12-26T18:16:08;3.00;;;0.70;;
50569;SDS011;36525;49.398;7.614;2022-12-26T18:18:43;3.05;;;0.88;;
50569;SDS011;36525;49.398;7.614;2022-12-26T18:21:12;3.05;;;0.80;;
50569;SDS011;36525;49.398;7.614;2022-12-26T18:23:41;3.83;;;0.85;;
50569;SDS011;36525;49.398;7.614;2022-12-26T18:26:16;4.28;;;0.77;;
50569;SDS011;36525;49.398;7.614;2022-12-26T18:28:50;3.88;;;0.80;;
50569;SDS011;36525;49.398;7.614;2022-12-26T18:31:17;3.03;;;0.70;;
50569;SDS011;36525;49.398;7.614;2022-12-26T18:33:44;5.35;;;0.90;;
50569;SDS011;36525;49.398;7.614;2022-12-26T18:36:11;2.75;;;0.77;;
50569;SDS011;36525;49.398;7.614;2022-12-26T18:38:40;2.92;;;0.80;;
50569;SDS011;36525;49.398;7.614;2022-12-26T18:41:08;1.92;;;0.75;;
50569;SDS011;36525;49.398;7.614;2022-12-26T18:43:43;3.47;;;0.90;;
50569;SDS011;36525;49.398;7.614;2022-12-26T18:46:14;2.67;;;0.80;;
50569;SDS011;36525;49.398;7.614;2022-12-26T18:48:48;3.92;;;0.80;;
50569;SDS011;36525;49.398;7.614;2022-12-26T18:51:16;3.90;;;1.10;;
50569;SDS011;36525;49.398;7.614;2022-12-26T18:53:44;3.38;;;0.80;;
50569;SDS011;36525;49.398;7.614;2022-12-26T18:56:12;2.85;;;1.00;;
50569;SDS011;36525;49.398;7.614;2022-12-26T18:58:46;3.20;;;1.00;;
50569;SDS011;36525;49.398;7.614;2022-12-26T19:01:22;2.65;;;0.70;;
50569;SDS011;36525;49.398;7.614;2022-12-26T19:03:49;3.78;;;0.70;;
50569;SDS011;36525;49.398;7.614;2022-12-26T19:06:23;1.35;;;0.60;;
50569;SDS011;36525;49.398;7.614;2022-12-26T19:08:53;7.38;;;1.60;;
50569;SDS011;36525;49.398;7.614;2022-12-26T19:11:21;2.97;;;1.00;;
50569;SDS011;36525;49.398;7.614;2022-12-26T19:13:48;6.47;;;3.40;;
50569;SDS011;36525;49.398;7.614;2022-12-26T19:16:15;3.08;;;1.02;;
50569;SDS011;36525;49.398;7.614;2022-12-26T19:18:42;11.27;;;5.97;;
50569;SDS011;36525;49.398;7.614;2022-12-26T19:21:10;7.80;;;1.75;;
50569;SDS011;36525;49.398;7.614;2022-12-26T19:23:39;5.10;;;1.70;;
50569;SDS011;36525;49.398;7.614;2022-12-26T19:26:11;6.10;;;2.78;;
50569;SDS011;36525;49.398;7.614;2022-12-26T19:28:40;8.30;;;2.17;;
50569;SDS011;36525;49.398;7.614;2022-12-26T19:31:13;3.60;;;1.65;;
50569;SDS011;36525;49.398;7.614;2022-12-26T19:33:42;3.50;;;0.90;;
50569;SDS011;36525;49.398;7.614;2022-12-26T19:36:09;13.43;;;6.38;;
50569;SDS011;36525;49.398;7.614;2022-12-26T19:38:36;9.48;;;3.50;;
50569;SDS011;36525;49.398;7.614;2022-12-26T19:41:04;3.97;;;1.33;;
50569;SDS011;36525;49.398;7.614;2022-12-26T19:43:34;3.53;;;0.93;;
50569;SDS011;36525;49.398;7.614;2022-12-26T19:46:05;3.05;;;0.95;;
50569;SDS011;36525;49.398;7.614;2022-12-26T19:48:36;3.63;;;1.17;;
50569;SDS011;36525;49.398;7.614;2022-12-26T19:51:05;8.43;;;1.92;;
50569;SDS011;36525;49.398;7.614;2022-12-26T19:53:36;4.35;;;1.00;;
50569;SDS011;36525;49.398;7.614;2022-12-26T19:58:43;6.47;;;0.93;;
50569;SDS011;36525;49.398;7.614;2022-12-26T20:01:12;3.60;;;1.05;;
50569;SDS011;36525;49.398;7.614;2022-12-26T20:03:48;6.18;;;1.45;;